createdAt,value
2016-06-03T00:00:59.187Z,81.92
2016-06-03T00:01:59.190Z,81.34
2016-06-03T00:02:59.209Z,80.19
2016-06-03T00:03:59.195Z,80.47
2016-06-03T00:04:59.197Z,81.19
2016-06-03T00:05:59.184Z,78.98
2016-06-03T00:06:59.187Z,78.5
2016-06-03T00:07:59.175Z,79.65
2016-06-03T00:08:59.177Z,79.55
2016-06-03T00:09:59.727Z,79.36
2016-06-03T00:10:59.182Z,78.69
2016-06-03T00:11:59.186Z,79.46
2016-06-03T00:12:59.188Z,80.32
2016-06-03T00:13:59.175Z,77.25
2016-06-03T00:14:59.178Z,77.61
2016-06-03T00:15:59.180Z,78.53
2016-06-03T00:16:59.199Z,80.71
2016-06-03T00:17:59.217Z,79.65
2016-06-03T00:18:59.173Z,78.3
2016-06-03T00:19:59.176Z,80.04
2016-06-03T00:20:59.177Z,80.57
2016-06-03T00:21:59.181Z,81.43
2016-06-03T00:22:59.168Z,81.24
2016-06-03T00:23:59.171Z,81.34
2016-06-03T00:24:59.563Z,80.86
2016-06-03T00:25:59.020Z,79.9
2016-06-03T00:26:59.163Z,78.02
2016-06-03T00:27:59.165Z,77.48
2016-06-03T00:28:59.169Z,78.63
2016-06-03T00:29:59.171Z,79.3
2016-06-03T00:31:00.329Z,78.69
2016-06-03T00:31:59.162Z,78.44
2016-06-03T00:32:59.164Z,80.13
2016-06-03T00:33:59.167Z,81.43
2016-06-03T00:34:59.153Z,81.82
2016-06-03T00:35:59.156Z,81.05
2016-06-03T00:36:59.159Z,81.53
2016-06-03T00:37:59.161Z,80.96
2016-06-03T00:38:59.164Z,78.88
2016-06-03T00:39:59.151Z,81.67
2016-06-03T00:40:59.154Z,82.68
2016-06-03T00:41:59.157Z,83.74
2016-06-03T00:42:59.144Z,81.49
2016-06-03T00:43:59.146Z,80.9
2016-06-03T00:44:59.149Z,80.32
2016-06-03T00:45:59.136Z,77.73
2016-06-03T00:46:59.138Z,78.63
2016-06-03T00:47:59.142Z,80.27
2016-06-03T00:48:59.144Z,81.09
2016-06-03T00:49:59.147Z,81.24
2016-06-03T00:50:59.133Z,81.19
2016-06-03T00:51:59.152Z,81.82
2016-06-03T00:52:59.139Z,81.53
2016-06-03T00:53:59.141Z,78.94
2016-06-03T00:54:59.144Z,76.04
2016-06-03T00:55:59.132Z,75.4
2016-06-03T00:56:59.135Z,78.23
2016-06-03T00:57:59.138Z,79.07
2016-06-03T00:58:59.124Z,80.99
2016-06-03T00:59:59.142Z,81.24
2016-06-03T01:00:59.129Z,80.57
2016-06-03T01:01:59.132Z,81.09
2016-06-03T01:02:59.135Z,80.38
2016-06-03T01:03:59.122Z,80.96
2016-06-03T01:04:59.125Z,79.46
2016-06-03T01:05:59.128Z,78.44
2016-06-03T01:06:59.115Z,78.44
2016-06-03T01:07:59.118Z,79.27
2016-06-03T01:08:59.120Z,80.07
2016-06-03T01:09:59.592Z,80.13
2016-06-03T01:10:59.125Z,80.32
2016-06-03T01:11:59.128Z,78.53
2016-06-03T01:12:59.114Z,78.73
2016-06-03T01:13:59.117Z,78.53
2016-06-03T01:14:59.120Z,78.53
2016-06-03T01:15:59.123Z,79.21
2016-06-03T01:16:59.125Z,78.98
2016-06-03T01:17:59.128Z,79.6
2016-06-03T01:18:59.131Z,79.65
2016-06-03T01:19:59.133Z,81.09
2016-06-03T01:20:59.136Z,80.99
2016-06-03T01:21:59.139Z,81.57
2016-06-03T01:22:59.111Z,81.19
2016-06-03T01:23:59.113Z,80.13
2016-06-03T01:24:59.444Z,81.09
2016-06-03T01:25:59.119Z,81.63
2016-06-03T01:26:59.121Z,81.72
2016-06-03T01:27:59.124Z,80.96
2016-06-03T01:28:59.110Z,81.96
2016-06-03T01:29:59.113Z,81.53
2016-06-03T01:30:59.116Z,81.15
2016-06-03T01:31:59.119Z,80.32
2016-06-03T01:32:59.106Z,80.13
2016-06-03T01:33:59.468Z,81.09
2016-06-03T01:34:59.112Z,82.34
2016-06-03T01:35:59.114Z,83.07
2016-06-03T01:36:58.945Z,82.01
2016-06-03T01:37:59.104Z,82.53
2016-06-03T01:38:59.106Z,82.2
2016-06-03T01:39:59.110Z,82.2
2016-06-03T01:40:59.128Z,81.76
2016-06-03T01:41:59.114Z,81.53
2016-06-03T01:42:59.102Z,81.53
2016-06-03T01:43:59.105Z,82.87
2016-06-03T01:44:59.092Z,82.1
2016-06-03T01:45:59.094Z,79.46
2016-06-03T01:46:59.097Z,77.9
2016-06-03T01:47:59.084Z,80.17
2016-06-03T01:48:59.086Z,81.76
2016-06-03T01:49:59.089Z,81.38
2016-06-03T01:50:59.092Z,81.28
2016-06-03T01:51:59.095Z,82.3
2016-06-03T01:52:59.083Z,83.16
2016-06-03T01:53:59.084Z,83.36
2016-06-03T01:54:59.180Z,83.36
2016-06-03T01:55:59.074Z,83.54
2016-06-03T01:56:59.077Z,83.16
2016-06-03T01:57:59.079Z,79.61
2016-06-03T01:58:59.066Z,77.42
2016-06-03T01:59:59.085Z,77.42
2016-06-03T02:00:59.072Z,76.56
2016-06-03T02:01:59.074Z,77.33
2016-06-03T02:02:59.078Z,78.92
2016-06-03T02:03:59.080Z,80.51
2016-06-03T02:04:59.067Z,81.86
2016-06-03T02:05:59.070Z,81.72
2016-06-03T02:06:59.073Z,82.3
2016-06-03T02:07:59.075Z,81.82
2016-06-03T02:08:59.063Z,82.78
2016-06-03T02:09:59.081Z,83.07
2016-06-03T02:10:59.068Z,82.3
2016-06-03T02:11:59.055Z,81.53
2016-06-03T02:12:59.058Z,81.82
2016-06-03T02:13:59.076Z,82.53
2016-06-03T02:14:59.064Z,84.22
2016-06-03T02:15:59.066Z,85.04
2016-06-03T02:16:59.053Z,86
2016-06-03T02:17:59.055Z,83.08
2016-06-03T02:18:59.074Z,81.28
2016-06-03T02:19:59.045Z,80.8
2016-06-03T02:20:58.891Z,80.71
2016-06-03T02:21:59.050Z,81.96
2016-06-03T02:22:59.038Z,82.3
2016-06-03T02:23:59.040Z,82.87
2016-06-03T02:24:58.933Z,83.93
2016-06-03T02:25:59.046Z,84.51
2016-06-03T02:26:59.048Z,82.78
2016-06-03T02:27:59.035Z,83.26
2016-06-03T02:28:59.038Z,82.49
2016-06-03T02:29:59.041Z,83.36
2016-06-03T02:30:59.044Z,84.95
2016-06-03T02:31:59.030Z,83.89
2016-06-03T02:32:59.033Z,83.74
2016-06-03T02:33:59.083Z,83.45
2016-06-03T02:34:59.024Z,83.84
2016-06-03T02:35:59.026Z,85.08
2016-06-03T02:36:59.076Z,83.93
2016-06-03T02:37:59.015Z,84.51
2016-06-03T02:38:59.065Z,84.85
2016-06-03T02:39:59.381Z,84.51
2016-06-03T02:40:58.867Z,84.31
2016-06-03T02:41:59.026Z,83.36
2016-06-03T02:42:59.029Z,84.51
2016-06-03T02:43:59.016Z,84.7
2016-06-03T02:44:59.019Z,83.93
2016-06-03T02:45:59.006Z,82.78
2016-06-03T02:46:59.009Z,83.54
2016-06-03T02:47:59.011Z,83.45
2016-06-03T02:48:59.013Z,82.49
2016-06-03T02:49:59.000Z,82.53
2016-06-03T02:50:59.003Z,83.84
2016-06-03T02:51:59.006Z,81.24
2016-06-03T02:52:58.993Z,79.46
2016-06-03T02:53:58.996Z,79.5
2016-06-03T02:54:59.014Z,78.06
2016-06-03T02:55:59.002Z,77.9
2016-06-03T02:56:59.004Z,80.3
2016-06-03T02:57:59.007Z,82.15
2016-06-03T02:58:58.994Z,82.92
2016-06-03T02:59:58.997Z,84.03
2016-06-03T03:00:58.999Z,83.07
2016-06-03T03:01:59.002Z,81.92
2016-06-03T03:02:58.988Z,81.09
2016-06-03T03:03:58.991Z,82.63
2016-06-03T03:04:59.010Z,80.57
2016-06-03T03:05:58.996Z,79.02
2016-06-03T03:06:58.985Z,78.06
2016-06-03T03:07:58.987Z,77.42
2016-06-03T03:08:58.989Z,79.92
2016-06-03T03:09:58.992Z,80.22
2016-06-03T03:10:59.042Z,80.32
2016-06-03T03:11:58.998Z,79.75
2016-06-03T03:12:59.001Z,80.36
2016-06-03T03:13:58.987Z,80.04
2016-06-03T03:14:58.990Z,81.86
2016-06-03T03:15:59.008Z,81.53
2016-06-03T03:16:58.980Z,81.48
2016-06-03T03:17:58.983Z,81.92
2016-06-03T03:18:58.985Z,80.66
2016-06-03T03:19:58.988Z,81.48
2016-06-03T03:20:58.974Z,83.3
2016-06-03T03:21:58.978Z,81.24
2016-06-03T03:22:58.981Z,81.67
2016-06-03T03:23:58.983Z,82.63
2016-06-03T03:24:58.986Z,82.01
2016-06-03T03:25:58.973Z,80.96
2016-06-03T03:26:58.991Z,80.61
2016-06-03T03:27:58.977Z,79.27
2016-06-03T03:28:58.980Z,78.73
2016-06-03T03:29:58.968Z,81.32
2016-06-03T03:30:58.970Z,82.59
2016-06-03T03:31:58.974Z,82.49
2016-06-03T03:32:58.976Z,81.15
2016-06-03T03:33:58.979Z,80.22
2016-06-03T03:34:59.028Z,79.6
2016-06-03T03:35:58.969Z,79.69
2016-06-03T03:36:58.970Z,80.36
2016-06-03T03:37:58.973Z,79.75
2016-06-03T03:38:59.023Z,78.53
2016-06-03T03:39:58.979Z,78.06
2016-06-03T03:40:58.966Z,78.96
2016-06-03T03:41:58.968Z,79.02
2016-06-03T03:42:58.971Z,78
2016-06-03T03:43:58.973Z,78.96
2016-06-03T03:44:58.977Z,77.48
2016-06-03T03:45:58.979Z,77.71
2016-06-03T03:46:58.967Z,79.05
2016-06-03T03:47:58.984Z,78.25
2016-06-03T03:48:58.816Z,78.48
2016-06-03T03:49:58.975Z,79.3
2016-06-03T03:50:58.978Z,78.83
2016-06-03T03:51:58.981Z,79.21
2016-06-03T03:52:58.983Z,80.94
2016-06-03T03:53:59.001Z,80.9
2016-06-03T03:54:59.535Z,80.8
2016-06-03T03:55:58.835Z,78.5
2016-06-03T03:56:58.977Z,78.67
2016-06-03T03:57:58.981Z,77.61
2016-06-03T03:58:58.983Z,76.94
2016-06-03T03:59:58.986Z,76.17
2016-06-03T04:00:58.974Z,77.46
2016-06-03T04:01:58.992Z,77.23
2016-06-03T04:02:58.994Z,78.48
2016-06-03T04:03:58.996Z,78.48
2016-06-03T04:04:58.984Z,79.05
2016-06-03T04:05:58.987Z,80.46
2016-06-03T04:06:58.973Z,78.59
2016-06-03T04:07:58.993Z,79.05
2016-06-03T04:08:58.995Z,78.96
2016-06-03T04:09:58.997Z,79.25
2016-06-03T04:10:59.484Z,79.02
2016-06-03T04:11:58.987Z,78.83
2016-06-03T04:12:58.990Z,81.04
2016-06-03T04:13:58.977Z,79.94
2016-06-03T04:14:58.995Z,78.92
2016-06-03T04:15:58.981Z,78.15
2016-06-03T04:16:58.984Z,77.61
2016-06-03T04:17:58.987Z,75.59
2016-06-03T04:18:58.834Z,75.05
2016-06-03T04:19:58.993Z,74.96
2016-06-03T04:20:58.995Z,76.69
2016-06-03T04:21:59.014Z,78.96
2016-06-03T04:22:59.001Z,78.06
2016-06-03T04:23:58.989Z,76.84
2016-06-03T04:24:59.694Z,76.65
2016-06-03T04:25:59.009Z,76.26
2016-06-03T04:26:58.996Z,76.17
2016-06-03T04:27:58.999Z,75.92
2016-06-03T04:28:59.002Z,75.63
2016-06-03T04:29:59.005Z,76.5
2016-06-03T04:30:59.007Z,76.56
2016-06-03T04:31:59.010Z,76.75
2016-06-03T04:32:58.997Z,76.21
2016-06-03T04:33:59.000Z,76.31
2016-06-03T04:34:59.002Z,77.26
2016-06-03T04:35:59.005Z,77.42
2016-06-03T04:36:59.007Z,78.77
2016-06-03T04:37:59.010Z,79.11
2016-06-03T04:38:58.996Z,77.23
2016-06-03T04:39:59.016Z,77.9
2016-06-03T04:40:59.018Z,78.96
2016-06-03T04:41:59.005Z,78.28
2016-06-03T04:42:59.007Z,78.28
2016-06-03T04:43:59.010Z,78.38
2016-06-03T04:44:59.013Z,79.63
2016-06-03T04:45:59.015Z,79.5
2016-06-03T04:46:58.848Z,79.3
2016-06-03T04:47:59.006Z,80.4
2016-06-03T04:48:59.008Z,81.71
2016-06-03T04:49:59.011Z,81.19
2016-06-03T04:50:59.014Z,80.55
2016-06-03T04:51:59.017Z,78.73
2016-06-03T04:52:59.019Z,79.15
2016-06-03T04:53:59.006Z,80.27
2016-06-03T04:54:59.494Z,81.52
2016-06-03T04:55:59.012Z,81.57
2016-06-03T04:56:59.014Z,81.86
2016-06-03T04:57:59.017Z,79.6
2016-06-03T04:58:59.005Z,80.84
2016-06-03T04:59:59.007Z,78.92
2016-06-03T05:00:59.040Z,78.67
2016-06-03T05:01:59.028Z,78.86
2016-06-03T05:02:59.015Z,78.09
2016-06-03T05:03:58.861Z,79.82
2016-06-03T05:04:59.020Z,80.3
2016-06-03T05:05:59.023Z,81.32
2016-06-03T05:06:59.010Z,80.13
2016-06-03T05:07:59.013Z,81.13
2016-06-03T05:08:59.031Z,78.44
2016-06-03T05:09:59.830Z,77.42
2016-06-03T05:10:59.021Z,77.36
2016-06-03T05:11:58.868Z,77.75
2016-06-03T05:12:59.010Z,76.94
2016-06-03T05:13:59.013Z,76.26
2016-06-03T05:14:59.016Z,75.92
2016-06-03T05:15:59.018Z,76.06
2016-06-03T05:16:59.020Z,75.73
2016-06-03T05:17:59.023Z,76.69
2016-06-03T05:18:59.026Z,76.01
2016-06-03T05:19:59.029Z,76.59
2016-06-03T05:20:59.031Z,76.5
2016-06-03T05:21:59.019Z,76.88
2016-06-03T05:22:59.022Z,77.51
2016-06-03T05:23:59.040Z,76.69
2016-06-03T05:24:59.574Z,75.92
2016-06-03T05:25:58.889Z,76.69
2016-06-03T05:26:59.033Z,78.09
2016-06-03T05:27:59.036Z,78
2016-06-03T05:28:59.038Z,78.58
2016-06-03T05:29:59.041Z,79.44
2016-06-03T05:30:59.028Z,79.35
2016-06-03T05:31:59.031Z,78.58
2016-06-03T05:32:59.048Z,79.05
2016-06-03T05:33:59.035Z,78.96
2016-06-03T05:34:59.038Z,77.61
2016-06-03T05:35:59.088Z,78.23
2016-06-03T05:36:59.121Z,78.52
2016-06-03T05:37:59.046Z,80.11
2016-06-03T05:38:59.049Z,79.82
2016-06-03T05:39:59.693Z,78.77
2016-06-03T05:40:58.898Z,79.58
2016-06-03T05:41:59.041Z,80.4
2016-06-03T05:42:59.044Z,78.58
2016-06-03T05:43:59.047Z,78.61
2016-06-03T05:44:59.049Z,79.05
2016-06-03T05:45:59.052Z,78.09
2016-06-03T05:46:59.040Z,77.46
2016-06-03T05:47:59.043Z,77.65
2016-06-03T05:48:59.045Z,76.69
2016-06-03T05:49:59.048Z,77.31
2016-06-03T05:50:59.051Z,78.23
2016-06-03T05:51:59.053Z,78.9
2016-06-03T05:52:59.055Z,80.35
2016-06-03T05:53:59.058Z,79.53
2016-06-03T05:54:59.076Z,80.06
2016-06-03T05:55:59.125Z,80.02
2016-06-03T05:56:59.066Z,79.53
2016-06-03T05:57:59.053Z,79.58
2016-06-03T05:58:59.056Z,79.77
2016-06-03T05:59:59.043Z,78.67
2016-06-03T06:00:59.061Z,77.65
2016-06-03T06:01:59.049Z,77.94
2016-06-03T06:02:59.052Z,78.52
2016-06-03T06:03:59.054Z,77.26
2016-06-03T06:04:59.072Z,77.65
2016-06-03T06:05:59.060Z,76.78
2016-06-03T06:06:59.063Z,78.56
2016-06-03T06:07:59.065Z,78.71
2016-06-03T06:08:59.068Z,79.67
2016-06-03T06:09:59.070Z,77.71
2016-06-03T06:10:59.949Z,78.52
2016-06-03T06:11:59.075Z,78.96
2016-06-03T06:12:59.062Z,78.86
2016-06-03T06:13:59.065Z,78.48
2016-06-03T06:14:59.068Z,78.61
2016-06-03T06:15:59.070Z,78.61
2016-06-03T06:16:59.073Z,77.94
2016-06-03T06:17:59.076Z,78.33
2016-06-03T06:18:59.079Z,78.61
2016-06-03T06:19:59.081Z,76.59
2016-06-03T06:20:59.084Z,77.78
2016-06-03T06:21:59.071Z,78.42
2016-06-03T06:22:59.090Z,79.48
2016-06-03T06:23:59.076Z,79.35
2016-06-03T06:24:59.157Z,78.03
2016-06-03T06:25:59.207Z,79.38
2016-06-03T06:26:59.085Z,78.42
2016-06-03T06:27:59.071Z,78.33
2016-06-03T06:28:59.089Z,80.06
2016-06-03T06:29:59.077Z,78.67
2016-06-03T06:30:59.080Z,78.9
2016-06-03T06:31:59.113Z,79.28
2016-06-03T06:32:59.085Z,78.52
2016-06-03T06:33:59.088Z,79.05
2016-06-03T06:34:59.075Z,78.52
2016-06-03T06:35:59.140Z,79
2016-06-03T06:36:59.080Z,80.06
2016-06-03T06:37:59.083Z,79.35
2016-06-03T06:38:59.194Z,79.28
2016-06-03T06:39:59.089Z,79.48
2016-06-03T06:40:59.591Z,79.38
2016-06-03T06:41:59.093Z,81.17
2016-06-03T06:42:59.096Z,79.25
2016-06-03T06:43:59.099Z,78.96
2016-06-03T06:44:58.945Z,79.38
2016-06-03T06:45:59.104Z,80.21
2016-06-03T06:46:59.115Z,80.4
2016-06-03T06:47:59.145Z,80.4
2016-06-03T06:48:59.175Z,80.02
2016-06-03T06:49:59.205Z,79.58
2016-06-03T06:50:59.235Z,78.52
2016-06-03T06:51:59.250Z,77.94
2016-06-03T06:52:59.247Z,78.03
2016-06-03T06:53:59.274Z,79.03
2016-06-03T06:54:59.288Z,79.1
2016-06-03T06:55:59.130Z,79.19
2016-06-03T06:56:59.292Z,80.44
2016-06-03T06:57:59.298Z,81.75
2016-06-03T06:58:59.304Z,80.11
2016-06-03T06:59:59.311Z,78.96
2016-06-03T07:00:59.301Z,78.71
2016-06-03T07:01:59.305Z,78.65
2016-06-03T07:02:59.309Z,79.58
2016-06-03T07:03:59.328Z,80.6
2016-06-03T07:04:59.316Z,79.15
2016-06-03T07:05:59.336Z,79.58
2016-06-03T07:06:59.339Z,78.71
2016-06-03T07:07:59.312Z,77.75
2016-06-03T07:08:59.331Z,77.21
2016-06-03T07:09:59.334Z,77.46
2016-06-03T07:10:59.651Z,76.82
2016-06-03T07:11:59.325Z,76.98
2016-06-03T07:12:59.328Z,77.31
2016-06-03T07:13:59.331Z,78.17
2016-06-03T07:14:59.333Z,77.26
2016-06-03T07:15:59.336Z,78.75
2016-06-03T07:16:59.322Z,80
2016-06-03T07:17:59.325Z,79.1
2016-06-03T07:18:59.328Z,77.65
2016-06-03T07:19:59.346Z,77.4
2016-06-03T07:20:59.333Z,76.82
2016-06-03T07:21:59.336Z,76.63
2016-06-03T07:22:59.339Z,77.01
2016-06-03T07:23:59.341Z,79.33
2016-06-03T07:24:59.407Z,78.81
2016-06-03T07:25:59.347Z,77.65
2016-06-03T07:26:59.334Z,77.88
2016-06-03T07:27:59.336Z,79.71
2016-06-03T07:28:59.339Z,81.3
2016-06-03T07:29:59.342Z,78.96
2016-06-03T07:30:59.345Z,78.9
2016-06-03T07:31:59.347Z,78.61
2016-06-03T07:32:59.350Z,79.13
2016-06-03T07:33:59.352Z,78.71
2016-06-03T07:34:59.355Z,78.33
2016-06-03T07:35:59.343Z,78.36
2016-06-03T07:36:59.346Z,78.85
2016-06-03T07:37:59.410Z,79.38
2016-06-03T07:38:59.398Z,79.77
2016-06-03T07:39:59.651Z,79.67
2016-06-03T07:40:59.357Z,80.63
2016-06-03T07:41:59.359Z,79.63
2016-06-03T07:42:59.361Z,77.56
2016-06-03T07:43:59.364Z,77.21
2016-06-03T07:44:59.351Z,77.98
2016-06-03T07:45:59.354Z,78.56
2016-06-03T07:46:59.372Z,79.33
2016-06-03T07:47:59.359Z,78.71
2016-06-03T07:48:59.362Z,78.94
2016-06-03T07:49:59.364Z,79
2016-06-03T07:50:59.367Z,78.42
2016-06-03T07:51:59.370Z,78.56
2016-06-03T07:52:59.372Z,77.78
2016-06-03T07:53:59.219Z,77.5
2016-06-03T07:54:59.691Z,76.25
2016-06-03T07:55:59.850Z,76.67
2016-06-03T07:56:59.367Z,76.53
2016-06-03T07:57:59.386Z,76.67
2016-06-03T07:58:59.372Z,77.44
2016-06-03T07:59:59.391Z,76.48
2016-06-03T08:00:59.378Z,76.38
2016-06-03T08:01:59.380Z,75.61
2016-06-03T08:02:59.400Z,75.32
2016-06-03T08:03:59.402Z,74.74
2016-06-03T08:04:59.389Z,73.62
2016-06-03T08:05:59.391Z,74.97
2016-06-03T08:06:59.410Z,74.45
2016-06-03T08:07:59.397Z,75.32
2016-06-03T08:08:59.415Z,76.96
2016-06-03T08:10:00.137Z,74.84
2016-06-03T08:10:59.405Z,74.55
2016-06-03T08:11:59.405Z,74.2
2016-06-03T08:12:59.408Z,75.65
2016-06-03T08:13:59.410Z,76.92
2016-06-03T08:14:59.413Z,78.56
2016-06-03T08:15:59.416Z,78.17
2016-06-03T08:16:59.418Z,77.59
2016-06-03T08:17:59.421Z,76.34
2016-06-03T08:18:59.424Z,76.28
2016-06-03T08:19:59.426Z,77.34
2016-06-03T08:20:59.429Z,78.27
2016-06-03T08:21:59.417Z,77.4
2016-06-03T08:22:59.450Z,76.44
2016-06-03T08:23:59.422Z,77.92
2016-06-03T08:24:59.519Z,77.01
2016-06-03T08:25:59.443Z,75.96
2016-06-03T08:26:59.430Z,74.32
2016-06-03T08:27:59.433Z,75.61
2016-06-03T08:28:59.436Z,75.32
2016-06-03T08:29:59.438Z,75.51
2016-06-03T08:30:59.441Z,74.84
2016-06-03T08:31:59.459Z,74.58
2016-06-03T08:32:59.446Z,75.03
2016-06-03T08:33:59.449Z,75.99
2016-06-03T08:34:59.451Z,75.23
2016-06-03T08:35:59.455Z,75.23
2016-06-03T08:36:59.457Z,75.65
2016-06-03T08:37:59.460Z,73.39
2016-06-03T08:38:59.463Z,73.14
2016-06-03T08:39:59.465Z,71.83
2016-06-03T08:40:59.468Z,72.89
2016-06-03T08:41:59.485Z,71.73
2016-06-03T08:42:59.488Z,71.34
2016-06-03T08:43:59.476Z,72.31
2016-06-03T08:44:59.478Z,71.83
2016-06-03T08:45:59.482Z,72.31
2016-06-03T08:46:59.499Z,71.73
2016-06-03T08:47:59.486Z,72.02
2016-06-03T08:48:59.505Z,72.79
2016-06-03T08:49:59.492Z,72.79
2016-06-03T08:50:59.510Z,72.5
2016-06-03T08:51:59.513Z,72.41
2016-06-03T08:52:59.515Z,73.27
2016-06-03T08:53:59.517Z,72.37
2016-06-03T08:54:59.975Z,71.44
2016-06-03T08:55:59.695Z,70.57
2016-06-03T08:56:59.526Z,71.54
2016-06-03T08:57:59.545Z,72.89
2016-06-03T08:58:59.531Z,72.37
2016-06-03T08:59:59.534Z,72.75
2016-06-03T09:01:00.209Z,72.75
2016-06-03T09:01:59.539Z,73.53
2016-06-03T09:02:59.542Z,71.7
2016-06-03T09:03:59.545Z,71.83
2016-06-03T09:04:59.548Z,72.31
2016-06-03T09:05:59.551Z,72.99
2016-06-03T09:06:59.397Z,73.33
2016-06-03T09:07:59.555Z,73.33
2016-06-03T09:08:59.574Z,72.66
2016-06-03T09:10:00.186Z,72.99
2016-06-03T09:10:59.580Z,73.27
2016-06-03T09:11:59.566Z,73.05
2016-06-03T09:12:59.569Z,73.18
2016-06-03T09:13:59.588Z,71.15
2016-06-03T09:14:59.575Z,71.38
2016-06-03T09:15:59.656Z,71.54
2016-06-03T09:16:59.596Z,70.86
2016-06-03T09:17:59.599Z,71.83
2016-06-03T09:18:59.602Z,71.25
2016-06-03T09:19:59.604Z,72.02
2016-06-03T09:20:59.607Z,71.83
2016-06-03T09:21:59.609Z,70.96
2016-06-03T09:22:59.612Z,70.96
2016-06-03T09:23:59.615Z,71.15
2016-06-03T09:24:59.634Z,70.67
2016-06-03T09:25:59.620Z,70.19
2016-06-03T09:26:59.622Z,69.9
2016-06-03T09:27:59.626Z,69.51
2016-06-03T09:28:59.628Z,69.42
2016-06-03T09:29:59.630Z,70.67
2016-06-03T09:30:59.634Z,70
2016-06-03T09:31:59.636Z,70.19
2016-06-03T09:32:59.654Z,68.77
2016-06-03T09:33:59.641Z,69.45
2016-06-03T09:34:59.645Z,69.74
2016-06-03T09:35:59.647Z,68.77
2016-06-03T09:36:59.666Z,69.84
2016-06-03T09:37:59.668Z,71.19
2016-06-03T09:38:59.671Z,71.64
2016-06-03T09:39:59.674Z,71.06
2016-06-03T09:40:59.754Z,70.67
2016-06-03T09:41:59.679Z,70.9
2016-06-03T09:42:59.682Z,70.51
2016-06-03T09:43:59.685Z,70.57
2016-06-03T09:44:59.688Z,70.32
2016-06-03T09:45:59.690Z,69.9
2016-06-03T09:46:59.692Z,69.32
2016-06-03T09:47:59.696Z,70.09
2016-06-03T09:48:59.697Z,69.42
2016-06-03T09:49:59.716Z,69.71
2016-06-03T09:50:59.703Z,68.87
2016-06-03T09:51:59.706Z,68.49
2016-06-03T09:52:59.709Z,69.26
2016-06-03T09:53:59.711Z,68.1
2016-06-03T09:55:00.511Z,68.77
2016-06-03T09:55:59.732Z,69.26
2016-06-03T09:56:59.734Z,68.97
2016-06-03T09:57:59.737Z,68.87
2016-06-03T09:58:59.599Z,69.45
2016-06-03T09:59:59.742Z,68.68
2016-06-03T10:00:59.746Z,68.87
2016-06-03T10:01:59.748Z,70.13
2016-06-03T10:02:59.751Z,69.64
2016-06-03T10:03:59.753Z,68.87
2016-06-03T10:04:59.756Z,69.35
2016-06-03T10:05:59.758Z,68.87
2016-06-03T10:06:59.762Z,68.97
2016-06-03T10:07:59.764Z,68.77
2016-06-03T10:08:59.766Z,69.64
2016-06-03T10:09:59.817Z,69.8
2016-06-03T10:10:59.772Z,70.67
2016-06-03T10:11:59.775Z,70.28
2016-06-03T10:12:59.794Z,69.8
2016-06-03T10:13:59.796Z,69.71
2016-06-03T10:14:59.627Z,69.71
2016-06-03T10:15:59.801Z,69.42
2016-06-03T10:16:59.804Z,69.07
2016-06-03T10:17:59.807Z,69.16
2016-06-03T10:18:59.810Z,68.59
2016-06-03T10:19:59.812Z,68.49
2016-06-03T10:20:59.815Z,68.19
2016-06-03T10:21:59.662Z,68.29
2016-06-03T10:22:59.820Z,68.01
2016-06-03T10:23:59.823Z,66.27
2016-06-03T10:24:59.825Z,67.23
2016-06-03T10:25:59.844Z,66.36
2016-06-03T10:26:59.832Z,65.78
2016-06-03T10:27:59.834Z,65.88
2016-06-03T10:28:59.853Z,65.78
2016-06-03T10:29:59.839Z,66.08
2016-06-03T10:30:59.842Z,65.88
2016-06-03T10:31:59.845Z,67.43
2016-06-03T10:32:59.847Z,66.75
2016-06-03T10:33:59.866Z,66.17
2016-06-03T10:34:59.868Z,66.49
2016-06-03T10:35:59.855Z,66.75
2016-06-03T10:36:59.874Z,65.82
2016-06-03T10:37:59.876Z,65.14
2016-06-03T10:38:59.880Z,65.14
2016-06-03T10:39:59.882Z,65.24
2016-06-03T10:41:00.244Z,64.56
2016-06-03T10:41:59.887Z,64.08
2016-06-03T10:42:59.905Z,64.76
2016-06-03T10:43:59.893Z,64.34
2016-06-03T10:44:59.910Z,64.34
2016-06-03T10:45:59.960Z,65.11
2016-06-03T10:46:59.916Z,64.56
2016-06-03T10:47:59.919Z,64.95
2016-06-03T10:48:59.921Z,64.37
2016-06-03T10:49:59.924Z,64.76
2016-06-03T10:50:59.927Z,64.47
2016-06-03T10:51:59.930Z,64.47
2016-06-03T10:52:59.932Z,64.86
2016-06-03T10:53:59.950Z,65.05
2016-06-03T10:54:59.969Z,65.14
2016-06-03T10:55:59.956Z,65.43
2016-06-03T10:56:59.959Z,65.24
2016-06-03T10:57:59.962Z,65.14
2016-06-03T10:58:59.979Z,65.05
2016-06-03T10:59:59.967Z,64.76
2016-06-03T11:00:59.969Z,65.24
2016-06-03T11:01:59.972Z,65.05
2016-06-03T11:02:59.990Z,64.95
2016-06-03T11:03:59.993Z,64.47
2016-06-03T11:04:59.995Z,65.01
2016-06-03T11:05:59.998Z,65.14
2016-06-03T11:07:00.000Z,64.34
2016-06-03T11:08:00.003Z,64.28
2016-06-03T11:09:00.006Z,64.28
2016-06-03T11:10:00.134Z,65.14
2016-06-03T11:11:00.011Z,65.14
2016-06-03T11:12:00.030Z,64.47
2016-06-03T11:13:00.017Z,64.66
2016-06-03T11:14:00.019Z,64.56
2016-06-03T11:15:00.022Z,64.56
2016-06-03T11:16:00.040Z,64.47
2016-06-03T11:17:00.043Z,64.37
2016-06-03T11:17:59.890Z,64.47
2016-06-03T11:19:00.049Z,64.18
2016-06-03T11:20:00.052Z,64.82
2016-06-03T11:21:00.054Z,64.15
2016-06-03T11:22:00.057Z,64.63
2016-06-03T11:23:00.060Z,64.08
2016-06-03T11:24:00.062Z,64.56
2016-06-03T11:25:00.424Z,63.98
2016-06-03T11:26:00.583Z,63.7
2016-06-03T11:27:00.071Z,63.7
2016-06-03T11:28:00.090Z,64.08
2016-06-03T11:29:00.092Z,64.08
2016-06-03T11:30:00.095Z,64.37
2016-06-03T11:31:00.097Z,64.56
2016-06-03T11:32:00.100Z,63.89
2016-06-03T11:33:00.102Z,63.21
2016-06-03T11:34:00.105Z,63.02
2016-06-03T11:35:00.108Z,62.54
2016-06-03T11:36:00.111Z,63.12
2016-06-03T11:37:00.114Z,63.12
2016-06-03T11:38:00.131Z,62.82
2016-06-03T11:39:00.134Z,63.15
2016-06-03T11:40:00.215Z,63.5
2016-06-03T11:41:00.655Z,63.12
2016-06-03T11:42:00.142Z,62.57
2016-06-03T11:43:00.145Z,62.28
2016-06-03T11:44:00.147Z,62.18
2016-06-03T11:45:00.150Z,62.57
2016-06-03T11:46:00.168Z,62.47
2016-06-03T11:47:00.171Z,62.95
2016-06-03T11:48:00.174Z,62.57
2016-06-03T11:49:00.177Z,62.57
2016-06-03T11:50:00.196Z,62.63
2016-06-03T11:51:00.182Z,62.08
2016-06-03T11:52:00.201Z,62.66
2016-06-03T11:53:00.203Z,62.86
2016-06-03T11:54:00.206Z,62.57
2016-06-03T11:55:00.051Z,63.34
2016-06-03T11:56:00.757Z,62.95
2016-06-03T11:57:00.214Z,63.24
2016-06-03T11:58:00.217Z,63.24
2016-06-03T11:59:00.220Z,63.15
2016-06-03T12:00:00.237Z,63.15
2016-06-03T12:01:00.240Z,63.73
2016-06-03T12:02:00.243Z,63.24
2016-06-03T12:03:00.245Z,63.63
2016-06-03T12:04:00.248Z,63.53
2016-06-03T12:05:00.250Z,62.57
2016-06-03T12:06:00.254Z,62.82
2016-06-03T12:07:00.272Z,63.02
2016-06-03T12:08:00.274Z,62.28
2016-06-03T12:09:00.261Z,62.08
2016-06-03T12:10:00.327Z,61.31
2016-06-03T12:11:00.282Z,61.22
2016-06-03T12:12:00.286Z,61.6
2016-06-03T12:13:00.288Z,61.89
2016-06-03T12:14:00.291Z,61.51
2016-06-03T12:15:00.309Z,61.7
2016-06-03T12:16:00.296Z,61.99
2016-06-03T12:17:00.314Z,61.12
2016-06-03T12:18:00.316Z,61.12
2016-06-03T12:19:00.320Z,61.02
2016-06-03T12:20:00.322Z,61.51
2016-06-03T12:21:00.325Z,61.7
2016-06-03T12:22:00.327Z,61.41
2016-06-03T12:23:00.346Z,61.31
2016-06-03T12:24:00.333Z,61.83
2016-06-03T12:25:00.368Z,61.31
2016-06-03T12:26:00.354Z,60.64
2016-06-03T12:27:00.357Z,61.41
2016-06-03T12:28:00.359Z,62.08
2016-06-03T12:29:00.378Z,61.8
2016-06-03T12:30:00.224Z,61.41
2016-06-03T12:31:00.384Z,60.44
2016-06-03T12:32:00.401Z,61.51
2016-06-03T12:33:00.404Z,61.41
2016-06-03T12:34:00.392Z,61.99
2016-06-03T12:35:00.395Z,61.31
2016-06-03T12:36:00.412Z,61.99
2016-06-03T12:37:00.415Z,61.22
2016-06-03T12:38:00.417Z,61.31
2016-06-03T12:39:00.420Z,61.7
2016-06-03T12:40:00.439Z,61.6
2016-06-03T12:41:01.316Z,61.02
2016-06-03T12:42:00.428Z,61.22
2016-06-03T12:43:00.447Z,61.51
2016-06-03T12:44:00.450Z,61.8
2016-06-03T12:45:00.452Z,61.12
2016-06-03T12:46:00.455Z,62.08
2016-06-03T12:47:00.458Z,61.83
2016-06-03T12:48:00.476Z,61.05
2016-06-03T12:49:00.463Z,61.25
2016-06-03T12:50:00.482Z,61.99
2016-06-03T12:51:00.499Z,61.44
2016-06-03T12:52:00.487Z,61.73
2016-06-03T12:53:00.505Z,60.67
2016-06-03T12:54:00.335Z,60.76
2016-06-03T12:55:00.354Z,61.34
2016-06-03T12:56:00.512Z,61.05